createdAt,value
2018-07-11T00:05:04.032Z,101045.00
2018-07-11T00:11:08.653Z,101042.00
2018-07-11T00:17:14.180Z,101044.00
2018-07-11T00:23:17.452Z,101051.00
2018-07-11T00:29:20.895Z,101048.00
2018-07-11T00:35:24.580Z,101041.00
2018-07-11T00:41:28.395Z,101051.00
2018-07-11T00:47:31.917Z,101047.00
2018-07-11T00:53:36.592Z,101051.00
2018-07-11T00:59:42.217Z,101065.00
2018-07-11T01:05:45.765Z,101062.00
2018-07-11T01:11:49.060Z,101056.00
2018-07-11T01:18:03.484Z,101070.00
2018-07-11T01:24:06.967Z,101065.00
2018-07-11T01:30:10.370Z,101056.00
2018-07-11T01:36:13.818Z,101057.00
2018-07-11T01:42:17.074Z,101065.00
2018-07-11T01:48:20.458Z,101058.00
2018-07-11T01:54:24.023Z,101067.00
2018-07-11T02:00:28.564Z,101054.00
2018-07-11T02:06:32.081Z,101053.00
2018-07-11T02:12:35.924Z,101054.00
2018-07-11T02:18:39.952Z,101054.00
2018-07-11T02:24:43.376Z,101065.00
2018-07-11T02:30:47.496Z,101065.00
2018-07-11T02:36:50.727Z,101073.00
2018-07-11T02:42:54.166Z,101063.00
2018-07-11T02:48:57.611Z,101051.00
2018-07-11T02:55:01.036Z,101046.00
2018-07-11T03:01:04.381Z,101055.00
2018-07-11T03:07:08.662Z,101061.00
2018-07-11T03:13:13.656Z,101055.00
2018-07-11T03:19:17.804Z,101069.00
2018-07-11T03:25:21.821Z,101063.00
2018-07-11T03:31:25.295Z,101071.00
2018-07-11T03:37:28.543Z,101062.00
2018-07-11T03:43:31.956Z,101067.00
2018-07-11T03:49:36.536Z,101074.00
2018-07-11T03:55:40.768Z,101073.00
2018-07-11T04:01:44.691Z,101067.00
2018-07-11T04:07:48.181Z,101083.00
2018-07-11T04:13:51.618Z,101101.00
2018-07-11T04:19:55.142Z,101104.00
2018-07-11T04:25:59.133Z,101101.00
2018-07-11T04:32:02.423Z,101099.00
2018-07-11T04:38:06.052Z,101093.00
2018-07-11T04:44:10.502Z,101093.00
2018-07-11T04:50:14.844Z,101094.00
2018-07-11T04:56:18.167Z,101112.00
2018-07-11T05:02:22.173Z,101095.00
2018-07-11T05:08:26.706Z,101107.00
2018-07-11T05:14:29.977Z,101107.00
2018-07-11T05:20:33.484Z,101106.00
2018-07-11T05:26:37.385Z,101110.00
2018-07-11T05:32:40.576Z,101103.00
2018-07-11T05:38:43.963Z,101119.00
2018-07-11T05:44:47.348Z,101109.00
2018-07-11T05:50:50.580Z,101102.00
2018-07-11T05:56:54.268Z,101105.00
2018-07-11T06:02:57.858Z,101110.00
2018-07-11T06:09:01.237Z,101119.00
2018-07-11T06:15:04.495Z,101127.00
2018-07-11T06:21:08.515Z,101130.00
2018-07-11T06:27:16.592Z,101136.00
2018-07-11T06:33:19.955Z,101143.00
2018-07-11T06:39:23.352Z,101149.00
2018-07-11T06:45:26.949Z,101164.00
2018-07-11T06:51:30.352Z,101164.00
2018-07-11T06:57:33.779Z,101154.00
2018-07-11T07:03:37.022Z,101163.00
2018-07-11T07:09:40.400Z,101163.00
2018-07-11T07:15:44.515Z,101169.00
2018-07-11T07:21:47.767Z,101157.00
2018-07-11T07:27:51.100Z,101148.00
2018-07-11T07:33:54.673Z,101136.00
2018-07-11T07:39:57.917Z,101139.00
2018-07-11T07:46:01.495Z,101136.00
2018-07-11T07:52:05.041Z,101134.00
2018-07-11T07:58:08.342Z,101116.00
2018-07-11T08:04:12.615Z,101122.00
2018-07-11T08:10:15.968Z,101131.00
2018-07-11T08:16:19.435Z,101127.00
2018-07-11T08:23:37.249Z,101126.00
2018-07-11T08:30:55.403Z,101131.00
2018-07-11T08:38:16.672Z,101117.00
2018-07-11T08:46:13.444Z,101109.00
2018-07-11T08:53:36.728Z,101102.00
2018-07-11T09:02:04.801Z,101087.00
2018-07-11T09:08:43.489Z,101087.00
2018-07-11T09:15:04.028Z,101088.00
2018-07-11T09:24:02.938Z,101093.00
2018-07-11T09:30:06.680Z,101091.00
2018-07-11T09:36:09.885Z,101083.00
2018-07-11T09:42:13.216Z,101081.00
2018-07-11T09:48:17.222Z,101074.00
2018-07-11T09:54:20.570Z,101072.00
2018-07-11T10:00:30.044Z,101070.00
2018-07-11T10:06:34.133Z,101076.00
2018-07-11T10:12:37.507Z,101068.00
2018-07-11T10:18:51.968Z,101072.00
2018-07-11T10:24:55.355Z,101054.00
2018-07-11T10:31:03.184Z,101051.00
2018-07-11T10:37:06.604Z,101044.00
2018-07-11T10:43:10.268Z,101054.00
2018-07-11T10:49:13.741Z,101043.00
2018-07-11T10:55:17.300Z,101035.00
2018-07-11T11:01:20.653Z,101043.00
2018-07-11T11:07:24.953Z,101057.00
2018-07-11T11:13:28.315Z,101039.00
2018-07-11T11:19:32.347Z,101049.00
2018-07-11T11:25:35.979Z,101043.00
2018-07-11T11:31:39.640Z,101036.00
2018-07-11T11:37:43.183Z,101028.00
2018-07-11T11:43:46.708Z,101021.00
2018-07-11T11:49:50.064Z,101018.00
2018-07-11T11:55:53.540Z,101016.00
2018-07-11T12:01:57.213Z,101014.00
2018-07-11T12:08:00.839Z,101029.00
2018-07-11T12:14:04.184Z,100996.00
2018-07-11T12:20:08.787Z,101012.00
2018-07-11T12:26:12.522Z,101004.00
2018-07-11T12:32:16.031Z,101000.00
2018-07-11T12:38:20.421Z,101005.00
2018-07-11T12:44:25.461Z,101004.00
2018-07-11T12:50:30.796Z,100991.00
2018-07-11T12:56:34.956Z,100987.00
2018-07-11T13:02:38.986Z,100997.00
2018-07-11T13:08:42.409Z,100985.00
2018-07-11T13:14:46.436Z,100989.00
2018-07-11T13:20:49.913Z,101013.00
2018-07-11T13:26:53.276Z,100991.00
2018-07-11T13:32:56.860Z,100982.00
2018-07-11T13:39:00.255Z,100978.00
2018-07-11T13:45:03.631Z,100978.00
2018-07-11T13:51:07.165Z,101009.00
2018-07-11T13:57:10.588Z,101015.00
2018-07-11T14:03:14.061Z,101017.00
2018-07-11T14:09:18.042Z,101046.00
2018-07-11T14:15:21.435Z,101050.00
2018-07-11T14:21:24.800Z,101038.00
2018-07-11T14:27:29.053Z,101033.00
2018-07-11T14:33:33.369Z,101021.00
2018-07-11T14:39:36.733Z,101023.00
2018-07-11T14:45:40.691Z,101012.00
2018-07-11T14:51:44.103Z,101016.00
2018-07-11T14:57:48.890Z,101000.00
2018-07-11T15:03:52.901Z,100993.00
2018-07-11T15:09:56.365Z,100989.00
2018-07-11T15:15:59.846Z,101016.00
2018-07-11T15:22:03.736Z,100986.00
2018-07-11T15:28:08.038Z,100990.00
2018-07-11T15:34:11.969Z,100997.00
2018-07-11T15:40:15.442Z,101000.00
2018-07-11T15:46:19.190Z,100999.00
2018-07-11T15:52:24.207Z,100979.00
2018-07-11T15:58:30.229Z,100973.00
2018-07-11T16:04:35.884Z,100969.00
2018-07-11T16:10:45.937Z,100968.00
2018-07-11T16:16:49.401Z,100959.00
2018-07-11T16:22:53.515Z,100978.00
2018-07-11T16:29:00.012Z,101009.00
2018-07-11T16:35:03.468Z,101001.00
2018-07-11T16:41:06.995Z,100992.00
2018-07-11T16:47:10.377Z,101003.00
2018-07-11T16:53:14.123Z,100998.00
2018-07-11T16:59:18.577Z,100998.00
2018-07-11T17:05:22.260Z,101001.00
2018-07-11T17:11:27.305Z,100995.00
2018-07-11T17:17:34.924Z,101001.00
2018-07-11T17:23:50.004Z,101004.00
2018-07-11T17:30:01.136Z,101004.00
2018-07-11T17:36:04.717Z,101004.00
2018-07-11T17:42:08.356Z,101003.00
2018-07-11T17:49:22.600Z,101001.00
2018-07-11T17:55:35.160Z,101007.00
2018-07-11T18:01:43.788Z,101017.00
2018-07-11T18:07:49.855Z,101012.00
2018-07-11T18:13:54.481Z,101017.00
2018-07-11T18:20:25.273Z,101017.00
2018-07-11T18:27:46.158Z,101019.00
2018-07-11T18:35:15.159Z,101008.00
2018-07-11T18:41:33.583Z,101012.00
2018-07-11T18:47:54.141Z,101010.00
2018-07-11T18:54:11.811Z,101013.00
2018-07-11T19:01:04.505Z,101012.00
2018-07-11T19:07:19.636Z,101003.00
2018-07-11T19:13:33.340Z,101009.00
2018-07-11T19:19:54.435Z,101012.00
2018-07-11T19:26:15.465Z,101016.00
2018-07-11T19:34:41.305Z,101029.00
2018-07-11T19:40:50.391Z,101030.00
2018-07-11T19:48:09.584Z,101048.00
2018-07-11T19:54:30.684Z,101054.00
2018-07-11T20:00:35.492Z,101064.00
2018-07-11T20:06:40.329Z,101049.00
2018-07-11T20:12:45.095Z,101041.00
2018-07-11T20:18:51.277Z,101050.00
2018-07-11T20:24:55.026Z,101064.00
2018-07-11T20:30:58.700Z,101073.00
2018-07-11T20:37:02.075Z,101071.00
2018-07-11T20:43:05.837Z,101069.00
2018-07-11T20:49:15.366Z,101071.00
2018-07-11T20:55:19.629Z,101066.00
2018-07-11T21:01:39.968Z,101076.00
2018-07-11T21:08:05.315Z,101087.00
2018-07-11T21:14:20.705Z,101090.00
2018-07-11T21:20:24.208Z,101090.00
2018-07-11T21:33:03.771Z,101081.00
2018-07-11T21:39:08.144Z,101088.00
2018-07-11T21:45:16.065Z,101075.00
2018-07-11T21:51:20.592Z,101086.00
2018-07-11T21:57:25.380Z,101090.00
2018-07-11T22:03:28.986Z,101088.00
2018-07-11T22:09:32.404Z,101086.00
2018-07-11T22:15:35.893Z,101089.00
2018-07-11T22:21:38.371Z,101081.00
2018-07-11T22:27:40.958Z,101090.00
2018-07-11T22:33:42.618Z,101075.00
2018-07-11T22:39:44.229Z,101077.00
2018-07-11T22:45:45.856Z,101076.00
2018-07-11T22:51:47.522Z,101079.00
2018-07-11T22:57:49.718Z,101073.00
2018-07-11T23:03:51.820Z,101075.00
2018-07-11T23:09:53.442Z,101071.00
2018-07-11T23:15:55.076Z,101064.00
2018-07-11T23:21:57.716Z,101071.00
2018-07-11T23:27:59.393Z,101058.00
2018-07-11T23:34:01.020Z,101069.00
2018-07-11T23:40:02.668Z,101080.00
2018-07-11T23:46:04.400Z,101087.00
2018-07-11T23:52:06.454Z,101083.00
2018-07-11T23:58:08.415Z,101086.00
